sensor_id;sensor_type;location;lat;lon;timestamp;temperature;humidity
59961;DHT22;55902;-37.980;-63.602;2024-03-02T00:00:08;27.70;93.20
59961;DHT22;55902;-37.980;-63.602;2024-03-02T00:02:46;27.70;93.20
59961;DHT22;55902;-37.980;-63.602;2024-03-02T00:05:15;27.70;93.30
59961;DHT22;55902;-37.980;-63.602;2024-03-02T00:07:44;27.70;93.20
59961;DHT22;55902;-37.980;-63.602;2024-03-02T00:10:14;27.70;93.30
59961;DHT22;55902;-37.980;-63.602;2024-03-02T00:12:42;27.60;93.50
59961;DHT22;55902;-37.980;-63.602;2024-03-02T00:17:54;27.50;93.90
59961;DHT22;55902;-37.980;-63.602;2024-03-02T00:20:22;27.50;94.10
59961;DHT22;55902;-37.980;-63.602;2024-03-02T00:23:00;27.40;94.30
59961;DHT22;55902;-37.980;-63.602;2024-03-02T00:25:40;27.40;94.30
59961;DHT22;55902;-37.980;-63.602;2024-03-02T00:28:31;27.30;94.60
59961;DHT22;55902;-37.980;-63.602;2024-03-02T00:31:08;27.30;94.90
59961;DHT22;55902;-37.980;-63.602;2024-03-02T00:33:48;27.20;94.80
59961;DHT22;55902;-37.980;-63.602;2024-03-02T00:36:25;27.20;95.10
59961;DHT22;55902;-37.980;-63.602;2024-03-02T00:38:55;27.10;95.20
59961;DHT22;55902;-37.980;-63.602;2024-03-02T00:46:28;27.00;96.00
59961;DHT22;55902;-37.980;-63.602;2024-03-02T00:49:01;27.00;96.40
59961;DHT22;55902;-37.980;-63.602;2024-03-02T00:51:33;26.90;96.60
59961;DHT22;55902;-37.980;-63.602;2024-03-02T00:54:07;26.90;96.90
59961;DHT22;55902;-37.980;-63.602;2024-03-02T00:56:34;26.80;97.10
59961;DHT22;55902;-37.980;-63.602;2024-03-02T00:59:02;26.80;97.50
59961;DHT22;55902;-37.980;-63.602;2024-03-02T01:01:28;26.70;97.70
59961;DHT22;55902;-37.980;-63.602;2024-03-02T01:03:55;26.70;97.60
59961;DHT22;55902;-37.980;-63.602;2024-03-02T01:06:22;26.70;98.00
59961;DHT22;55902;-37.980;-63.602;2024-03-02T01:08:49;26.60;98.10
59961;DHT22;55902;-37.980;-63.602;2024-03-02T01:11:18;26.60;98.40
59961;DHT22;55902;-37.980;-63.602;2024-03-02T01:13:46;26.50;98.60
59961;DHT22;55902;-37.980;-63.602;2024-03-02T01:16:13;26.50;98.90
59961;DHT22;55902;-37.980;-63.602;2024-03-02T01:18:40;26.50;99.00
59961;DHT22;55902;-37.980;-63.602;2024-03-02T01:21:07;26.40;99.20
59961;DHT22;55902;-37.980;-63.602;2024-03-02T01:23:34;26.40;99.40
59961;DHT22;55902;-37.980;-63.602;2024-03-02T01:26:01;26.30;99.80
59961;DHT22;55902;-37.980;-63.602;2024-03-02T01:28:28;26.30;99.90
59961;DHT22;55902;-37.980;-63.602;2024-03-02T01:30:55;26.20;99.90
59961;DHT22;55902;-37.980;-63.602;2024-03-02T01:33:25;26.20;99.90
59961;DHT22;55902;-37.980;-63.602;2024-03-02T01:35:52;26.20;99.90
59961;DHT22;55902;-37.980;-63.602;2024-03-02T01:38:19;26.10;99.90
59961;DHT22;55902;-37.980;-63.602;2024-03-02T01:40:47;26.10;99.90
59961;DHT22;55902;-37.980;-63.602;2024-03-02T01:43:15;26.00;99.90
59961;DHT22;55902;-37.980;-63.602;2024-03-02T01:45:43;26.00;99.90
59961;DHT22;55902;-37.980;-63.602;2024-03-02T01:48:10;25.90;99.90
59961;DHT22;55902;-37.980;-63.602;2024-03-02T01:50:37;25.90;99.90
59961;DHT22;55902;-37.980;-63.602;2024-03-02T01:53:04;25.90;99.90
59961;DHT22;55902;-37.980;-63.602;2024-03-02T01:55:31;25.90;99.90
59961;DHT22;55902;-37.980;-63.602;2024-03-02T01:57:59;25.90;99.90
59961;DHT22;55902;-37.980;-63.602;2024-03-02T02:00:26;25.80;99.90
59961;DHT22;55902;-37.980;-63.602;2024-03-02T02:02:53;25.80;99.90
59961;DHT22;55902;-37.980;-63.602;2024-03-02T02:05:21;25.80;99.90
59961;DHT22;55902;-37.980;-63.602;2024-03-02T02:07:48;25.70;99.90
59961;DHT22;55902;-37.980;-63.602;2024-03-02T02:10:15;25.70;99.90
59961;DHT22;55902;-37.980;-63.602;2024-03-02T02:12:42;25.70;99.90
59961;DHT22;55902;-37.980;-63.602;2024-03-02T02:15:28;25.70;99.90
59961;DHT22;55902;-37.980;-63.602;2024-03-02T02:17:56;25.60;99.90
59961;DHT22;55902;-37.980;-63.602;2024-03-02T02:20:24;25.60;99.90
59961;DHT22;55902;-37.980;-63.602;2024-03-02T02:23:04;25.60;99.90
59961;DHT22;55902;-37.980;-63.602;2024-03-02T02:25:36;25.60;99.90
59961;DHT22;55902;-37.980;-63.602;2024-03-02T02:28:03;25.50;99.90
59961;DHT22;55902;-37.980;-63.602;2024-03-02T02:30:31;25.50;99.90
59961;DHT22;55902;-37.980;-63.602;2024-03-02T02:32:58;25.50;99.90
59961;DHT22;55902;-37.980;-63.602;2024-03-02T02:35:25;25.50;99.90
59961;DHT22;55902;-37.980;-63.602;2024-03-02T02:37:56;25.50;99.90
59961;DHT22;55902;-37.980;-63.602;2024-03-02T02:40:24;25.50;99.90
59961;DHT22;55902;-37.980;-63.602;2024-03-02T02:42:51;25.50;99.90
59961;DHT22;55902;-37.980;-63.602;2024-03-02T02:45:19;25.50;99.90
59961;DHT22;55902;-37.980;-63.602;2024-03-02T02:47:59;25.50;99.90
59961;DHT22;55902;-37.980;-63.602;2024-03-02T02:50:28;25.50;99.90
59961;DHT22;55902;-37.980;-63.602;2024-03-02T02:52:55;25.50;99.90
59961;DHT22;55902;-37.980;-63.602;2024-03-02T02:55:22;25.50;99.90
59961;DHT22;55902;-37.980;-63.602;2024-03-02T02:57:49;25.50;99.90
59961;DHT22;55902;-37.980;-63.602;2024-03-02T03:00:16;25.50;99.90
59961;DHT22;55902;-37.980;-63.602;2024-03-02T03:02:48;25.50;99.90
59961;DHT22;55902;-37.980;-63.602;2024-03-02T03:05:16;25.50;99.90
59961;DHT22;55902;-37.980;-63.602;2024-03-02T03:07:43;25.50;99.90
59961;DHT22;55902;-37.980;-63.602;2024-03-02T03:10:11;25.40;99.90
59961;DHT22;55902;-37.980;-63.602;2024-03-02T03:12:38;25.50;99.90
59961;DHT22;55902;-37.980;-63.602;2024-03-02T03:15:07;25.50;99.90
59961;DHT22;55902;-37.980;-63.602;2024-03-02T03:17:35;25.40;99.90
59961;DHT22;55902;-37.980;-63.602;2024-03-02T03:20:02;25.40;99.90
59961;DHT22;55902;-37.980;-63.602;2024-03-02T03:22:30;25.30;99.90
59961;DHT22;55902;-37.980;-63.602;2024-03-02T03:24:58;25.30;99.90
59961;DHT22;55902;-37.980;-63.602;2024-03-02T03:27:25;25.30;99.90
59961;DHT22;55902;-37.980;-63.602;2024-03-02T03:29:52;25.30;99.90
59961;DHT22;55902;-37.980;-63.602;2024-03-02T03:32:20;25.30;99.90
59961;DHT22;55902;-37.980;-63.602;2024-03-02T03:34:47;25.30;99.90
59961;DHT22;55902;-37.980;-63.602;2024-03-02T03:37:15;25.30;99.90
59961;DHT22;55902;-37.980;-63.602;2024-03-02T03:39:42;25.30;99.90
59961;DHT22;55902;-37.980;-63.602;2024-03-02T03:42:09;25.30;99.90
59961;DHT22;55902;-37.980;-63.602;2024-03-02T03:44:36;25.30;99.90
59961;DHT22;55902;-37.980;-63.602;2024-03-02T03:47:03;25.30;99.90
59961;DHT22;55902;-37.980;-63.602;2024-03-02T03:49:32;25.20;99.90
59961;DHT22;55902;-37.980;-63.602;2024-03-02T03:52:06;25.20;99.90
59961;DHT22;55902;-37.980;-63.602;2024-03-02T03:54:33;25.20;99.90
59961;DHT22;55902;-37.980;-63.602;2024-03-02T03:57:00;25.20;99.90
59961;DHT22;55902;-37.980;-63.602;2024-03-02T03:59:26;25.20;99.90
59961;DHT22;55902;-37.980;-63.602;2024-03-02T04:01:53;25.10;99.90
59961;DHT22;55902;-37.980;-63.602;2024-03-02T04:04:20;25.10;99.90
59961;DHT22;55902;-37.980;-63.602;2024-03-02T04:06:47;25.00;99.90
59961;DHT22;55902;-37.980;-63.602;2024-03-02T04:09:14;25.00;99.90
59961;DHT22;55902;-37.980;-63.602;2024-03-02T04:11:41;25.00;99.90
59961;DHT22;55902;-37.980;-63.602;2024-03-02T04:14:08;25.00;99.90
59961;DHT22;55902;-37.980;-63.602;2024-03-02T04:16:36;25.00;99.90
59961;DHT22;55902;-37.980;-63.602;2024-03-02T04:19:03;24.90;99.90
59961;DHT22;55902;-37.980;-63.602;2024-03-02T04:21:30;24.90;99.90
59961;DHT22;55902;-37.980;-63.602;2024-03-02T04:23:57;24.90;99.90
59961;DHT22;55902;-37.980;-63.602;2024-03-02T04:26:25;24.90;99.90
59961;DHT22;55902;-37.980;-63.602;2024-03-02T04:28:53;24.90;99.90
59961;DHT22;55902;-37.980;-63.602;2024-03-02T04:31:20;24.80;99.90
59961;DHT22;55902;-37.980;-63.602;2024-03-02T04:33:47;24.80;99.90
59961;DHT22;55902;-37.980;-63.602;2024-03-02T04:36:14;24.80;99.90
59961;DHT22;55902;-37.980;-63.602;2024-03-02T04:38:41;24.80;99.90
59961;DHT22;55902;-37.980;-63.602;2024-03-02T04:41:08;24.80;99.90
59961;DHT22;55902;-37.980;-63.602;2024-03-02T04:43:35;24.70;99.90
59961;DHT22;55902;-37.980;-63.602;2024-03-02T04:46:02;24.80;99.90
59961;DHT22;55902;-37.980;-63.602;2024-03-02T04:48:30;24.80;99.90
59961;DHT22;55902;-37.980;-63.602;2024-03-02T04:50:57;24.80;99.90
59961;DHT22;55902;-37.980;-63.602;2024-03-02T04:53:24;24.70;99.90
59961;DHT22;55902;-37.980;-63.602;2024-03-02T04:55:51;24.70;99.90
59961;DHT22;55902;-37.980;-63.602;2024-03-02T04:58:56;24.70;99.90
59961;DHT22;55902;-37.980;-63.602;2024-03-02T05:01:23;24.70;99.90
59961;DHT22;55902;-37.980;-63.602;2024-03-02T05:03:50;24.70;99.90
59961;DHT22;55902;-37.980;-63.602;2024-03-02T05:06:17;24.60;99.90
59961;DHT22;55902;-37.980;-63.602;2024-03-02T05:08:44;24.60;99.90
59961;DHT22;55902;-37.980;-63.602;2024-03-02T05:11:11;24.60;99.90
59961;DHT22;55902;-37.980;-63.602;2024-03-02T05:13:56;24.60;99.90
59961;DHT22;55902;-37.980;-63.602;2024-03-02T05:16:23;24.60;99.90
59961;DHT22;55902;-37.980;-63.602;2024-03-02T05:18:49;24.60;99.90
59961;DHT22;55902;-37.980;-63.602;2024-03-02T05:21:16;24.50;99.90
59961;DHT22;55902;-37.980;-63.602;2024-03-02T05:23:43;24.50;99.90
59961;DHT22;55902;-37.980;-63.602;2024-03-02T05:26:10;24.50;99.90
59961;DHT22;55902;-37.980;-63.602;2024-03-02T05:28:40;24.50;99.90
59961;DHT22;55902;-37.980;-63.602;2024-03-02T05:31:09;24.50;99.90
59961;DHT22;55902;-37.980;-63.602;2024-03-02T05:33:38;24.50;99.90
59961;DHT22;55902;-37.980;-63.602;2024-03-02T05:36:05;24.50;99.90
59961;DHT22;55902;-37.980;-63.602;2024-03-02T05:38:35;24.50;99.90
59961;DHT22;55902;-37.980;-63.602;2024-03-02T05:41:03;24.50;99.90
59961;DHT22;55902;-37.980;-63.602;2024-03-02T05:43:30;24.50;99.90
59961;DHT22;55902;-37.980;-63.602;2024-03-02T05:46:00;24.40;99.90
59961;DHT22;55902;-37.980;-63.602;2024-03-02T05:48:27;24.40;99.90
59961;DHT22;55902;-37.980;-63.602;2024-03-02T05:50:54;24.40;99.90
59961;DHT22;55902;-37.980;-63.602;2024-03-02T05:53:20;24.40;99.90
59961;DHT22;55902;-37.980;-63.602;2024-03-02T05:55:47;24.40;99.90
59961;DHT22;55902;-37.980;-63.602;2024-03-02T05:58:19;24.40;99.90
59961;DHT22;55902;-37.980;-63.602;2024-03-02T06:00:52;24.40;99.90
59961;DHT22;55902;-37.980;-63.602;2024-03-02T06:03:20;24.40;99.90
59961;DHT22;55902;-37.980;-63.602;2024-03-02T06:05:47;24.40;99.90
59961;DHT22;55902;-37.980;-63.602;2024-03-02T06:08:15;24.40;99.90
59961;DHT22;55902;-37.980;-63.602;2024-03-02T06:10:43;24.40;99.90
59961;DHT22;55902;-37.980;-63.602;2024-03-02T06:13:10;24.40;99.90
59961;DHT22;55902;-37.980;-63.602;2024-03-02T06:15:37;24.30;99.90
59961;DHT22;55902;-37.980;-63.602;2024-03-02T06:18:04;24.30;99.90
59961;DHT22;55902;-37.980;-63.602;2024-03-02T06:20:34;24.20;99.90
59961;DHT22;55902;-37.980;-63.602;2024-03-02T06:23:01;24.20;99.90
59961;DHT22;55902;-37.980;-63.602;2024-03-02T06:25:28;24.20;99.90
59961;DHT22;55902;-37.980;-63.602;2024-03-02T06:27:55;24.20;99.90
59961;DHT22;55902;-37.980;-63.602;2024-03-02T06:30:22;24.10;99.90
59961;DHT22;55902;-37.980;-63.602;2024-03-02T06:32:49;24.10;99.90
59961;DHT22;55902;-37.980;-63.602;2024-03-02T06:35:16;24.20;99.90
59961;DHT22;55902;-37.980;-63.602;2024-03-02T06:37:42;24.10;99.90
59961;DHT22;55902;-37.980;-63.602;2024-03-02T06:40:10;24.10;99.90
59961;DHT22;55902;-37.980;-63.602;2024-03-02T06:42:37;24.10;99.90
59961;DHT22;55902;-37.980;-63.602;2024-03-02T06:45:04;24.10;99.90
59961;DHT22;55902;-37.980;-63.602;2024-03-02T06:47:31;23.90;99.90
59961;DHT22;55902;-37.980;-63.602;2024-03-02T06:49:58;23.90;99.90
59961;DHT22;55902;-37.980;-63.602;2024-03-02T06:52:25;23.80;99.90
59961;DHT22;55902;-37.980;-63.602;2024-03-02T06:54:52;23.80;99.90
59961;DHT22;55902;-37.980;-63.602;2024-03-02T06:57:19;23.70;99.90
59961;DHT22;55902;-37.980;-63.602;2024-03-02T06:59:47;23.70;99.90
59961;DHT22;55902;-37.980;-63.602;2024-03-02T07:02:16;23.60;99.90
59961;DHT22;55902;-37.980;-63.602;2024-03-02T07:04:43;23.60;99.90
59961;DHT22;55902;-37.980;-63.602;2024-03-02T07:07:11;23.60;99.90
59961;DHT22;55902;-37.980;-63.602;2024-03-02T07:09:38;23.60;99.90
59961;DHT22;55902;-37.980;-63.602;2024-03-02T07:12:06;23.50;99.90
59961;DHT22;55902;-37.980;-63.602;2024-03-02T07:14:33;23.50;99.90
59961;DHT22;55902;-37.980;-63.602;2024-03-02T07:17:18;23.50;99.90
59961;DHT22;55902;-37.980;-63.602;2024-03-02T07:19:45;23.40;99.90
59961;DHT22;55902;-37.980;-63.602;2024-03-02T07:22:12;23.40;99.90
59961;DHT22;55902;-37.980;-63.602;2024-03-02T07:24:42;23.30;99.90
59961;DHT22;55902;-37.980;-63.602;2024-03-02T07:27:13;23.20;99.90
59961;DHT22;55902;-37.980;-63.602;2024-03-02T07:29:41;23.20;99.90
59961;DHT22;55902;-37.980;-63.602;2024-03-02T07:32:08;23.10;99.90
59961;DHT22;55902;-37.980;-63.602;2024-03-02T07:34:36;23.00;99.90
59961;DHT22;55902;-37.980;-63.602;2024-03-02T07:37:04;22.90;99.90
59961;DHT22;55902;-37.980;-63.602;2024-03-02T07:39:31;22.80;99.90
59961;DHT22;55902;-37.980;-63.602;2024-03-02T07:41:58;22.70;99.90
59961;DHT22;55902;-37.980;-63.602;2024-03-02T07:44:26;22.60;99.90
59961;DHT22;55902;-37.980;-63.602;2024-03-02T07:46:56;22.60;99.90
59961;DHT22;55902;-37.980;-63.602;2024-03-02T07:49:23;22.50;99.90
59961;DHT22;55902;-37.980;-63.602;2024-03-02T07:51:50;22.40;99.90
59961;DHT22;55902;-37.980;-63.602;2024-03-02T07:54:17;22.30;99.90
59961;DHT22;55902;-37.980;-63.602;2024-03-02T07:56:44;22.30;99.90
59961;DHT22;55902;-37.980;-63.602;2024-03-02T07:59:11;22.10;99.90
59961;DHT22;55902;-37.980;-63.602;2024-03-02T08:01:38;22.00;99.90
59961;DHT22;55902;-37.980;-63.602;2024-03-02T08:04:05;22.00;99.90
59961;DHT22;55902;-37.980;-63.602;2024-03-02T08:06:33;21.90;99.90
59961;DHT22;55902;-37.980;-63.602;2024-03-02T08:09:00;21.80;99.90
59961;DHT22;55902;-37.980;-63.602;2024-03-02T08:11:28;21.70;99.50
59961;DHT22;55902;-37.980;-63.602;2024-03-02T08:13:56;21.60;99.30
59961;DHT22;55902;-37.980;-63.602;2024-03-02T08:16:23;21.60;98.90
59961;DHT22;55902;-37.980;-63.602;2024-03-02T08:18:52;21.50;98.00
59961;DHT22;55902;-37.980;-63.602;2024-03-02T08:21:19;21.60;98.30
59961;DHT22;55902;-37.980;-63.602;2024-03-02T08:23:46;21.50;99.00
59961;DHT22;55902;-37.980;-63.602;2024-03-02T08:26:13;21.50;97.00
59961;DHT22;55902;-37.980;-63.602;2024-03-02T08:28:40;21.50;96.90
59961;DHT22;55902;-37.980;-63.602;2024-03-02T08:31:07;21.50;97.90
59961;DHT22;55902;-37.980;-63.602;2024-03-02T08:33:35;21.40;95.50
59961;DHT22;55902;-37.980;-63.602;2024-03-02T08:36:02;21.40;95.70
59961;DHT22;55902;-37.980;-63.602;2024-03-02T08:38:29;21.30;96.10
59961;DHT22;55902;-37.980;-63.602;2024-03-02T08:40:56;21.20;95.70
59961;DHT22;55902;-37.980;-63.602;2024-03-02T08:43:23;21.20;95.40
59961;DHT22;55902;-37.980;-63.602;2024-03-02T08:45:51;21.10;95.80
59961;DHT22;55902;-37.980;-63.602;2024-03-02T08:48:18;21.10;95.50
59961;DHT22;55902;-37.980;-63.602;2024-03-02T08:50:46;21.00;96.10
59961;DHT22;55902;-37.980;-63.602;2024-03-02T08:53:13;21.00;96.50
59961;DHT22;55902;-37.980;-63.602;2024-03-02T08:55:46;20.90;96.60
59961;DHT22;55902;-37.980;-63.602;2024-03-02T08:58:16;20.90;96.20
59961;DHT22;55902;-37.980;-63.602;2024-03-02T09:00:43;20.80;96.80
59961;DHT22;55902;-37.980;-63.602;2024-03-02T09:03:10;20.80;97.20
59961;DHT22;55902;-37.980;-63.602;2024-03-02T09:05:37;20.70;97.20
59961;DHT22;55902;-37.980;-63.602;2024-03-02T09:08:04;20.70;97.70
59961;DHT22;55902;-37.980;-63.602;2024-03-02T09:10:31;20.60;98.20
59961;DHT22;55902;-37.980;-63.602;2024-03-02T09:12:59;20.60;98.90
59961;DHT22;55902;-37.980;-63.602;2024-03-02T09:15:26;20.60;99.20
59961;DHT22;55902;-37.980;-63.602;2024-03-02T09:17:53;20.50;99.70
59961;DHT22;55902;-37.980;-63.602;2024-03-02T09:23:54;20.50;99.90
59961;DHT22;55902;-37.980;-63.602;2024-03-02T09:26:21;20.40;99.90
59961;DHT22;55902;-37.980;-63.602;2024-03-02T09:28:48;20.40;99.90
59961;DHT22;55902;-37.980;-63.602;2024-03-02T09:31:16;20.30;99.90
59961;DHT22;55902;-37.980;-63.602;2024-03-02T09:33:43;20.30;99.90
59961;DHT22;55902;-37.980;-63.602;2024-03-02T09:36:20;20.20;99.90
59961;DHT22;55902;-37.980;-63.602;2024-03-02T09:38:48;20.20;99.90
59961;DHT22;55902;-37.980;-63.602;2024-03-02T09:41:16;20.20;99.90
59961;DHT22;55902;-37.980;-63.602;2024-03-02T09:43:43;20.10;99.90
59961;DHT22;55902;-37.980;-63.602;2024-03-02T09:46:10;20.10;99.90
59961;DHT22;55902;-37.980;-63.602;2024-03-02T09:48:38;20.00;99.90
59961;DHT22;55902;-37.980;-63.602;2024-03-02T09:51:05;20.00;99.90
59961;DHT22;55902;-37.980;-63.602;2024-03-02T09:53:33;19.90;99.90
59961;DHT22;55902;-37.980;-63.602;2024-03-02T09:56:01;19.80;99.90
59961;DHT22;55902;-37.980;-63.602;2024-03-02T09:58:28;19.80;99.90
59961;DHT22;55902;-37.980;-63.602;2024-03-02T10:00:55;19.70;99.90
59961;DHT22;55902;-37.980;-63.602;2024-03-02T10:03:23;19.70;99.90
59961;DHT22;55902;-37.980;-63.602;2024-03-02T10:05:53;19.60;99.90
59961;DHT22;55902;-37.980;-63.602;2024-03-02T10:08:20;19.60;99.90
59961;DHT22;55902;-37.980;-63.602;2024-03-02T10:10:47;19.60;99.90
59961;DHT22;55902;-37.980;-63.602;2024-03-02T10:13:14;19.50;99.90
59961;DHT22;55902;-37.980;-63.602;2024-03-02T10:15:42;19.50;99.90
59961;DHT22;55902;-37.980;-63.602;2024-03-02T10:18:13;19.50;99.90
59961;DHT22;55902;-37.980;-63.602;2024-03-02T10:20:41;19.40;99.90
59961;DHT22;55902;-37.980;-63.602;2024-03-02T10:23:13;19.40;99.90
59961;DHT22;55902;-37.980;-63.602;2024-03-02T10:25:41;19.40;99.90
59961;DHT22;55902;-37.980;-63.602;2024-03-02T10:28:08;19.30;99.90
59961;DHT22;55902;-37.980;-63.602;2024-03-02T10:30:36;19.30;99.90
59961;DHT22;55902;-37.980;-63.602;2024-03-02T10:33:03;19.30;99.90
59961;DHT22;55902;-37.980;-63.602;2024-03-02T10:35:33;19.30;99.90
59961;DHT22;55902;-37.980;-63.602;2024-03-02T10:38:04;19.30;99.90
59961;DHT22;55902;-37.980;-63.602;2024-03-02T10:40:32;19.40;99.90
59961;DHT22;55902;-37.980;-63.602;2024-03-02T10:43:01;19.40;99.90
59961;DHT22;55902;-37.980;-63.602;2024-03-02T10:45:31;19.40;99.90
59961;DHT22;55902;-37.980;-63.602;2024-03-02T10:47:59;19.40;99.90
59961;DHT22;55902;-37.980;-63.602;2024-03-02T10:50:28;19.40;99.90
59961;DHT22;55902;-37.980;-63.602;2024-03-02T10:52:55;19.40;99.90
59961;DHT22;55902;-37.980;-63.602;2024-03-02T10:55:22;19.40;99.90
59961;DHT22;55902;-37.980;-63.602;2024-03-02T10:58:07;19.40;99.90
59961;DHT22;55902;-37.980;-63.602;2024-03-02T11:28:38;19.70;99.90
59961;DHT22;55902;-37.980;-63.602;2024-03-02T11:31:06;19.70;99.90
59961;DHT22;55902;-37.980;-63.602;2024-03-02T11:40:10;19.90;99.90
59961;DHT22;55902;-37.980;-63.602;2024-03-02T11:42:38;20.00;99.90
59961;DHT22;55902;-37.980;-63.602;2024-03-02T11:45:05;20.00;99.90
59961;DHT22;55902;-37.980;-63.602;2024-03-02T11:47:35;20.20;99.90
59961;DHT22;55902;-37.980;-63.602;2024-03-02T11:50:03;20.60;99.90
59961;DHT22;55902;-37.980;-63.602;2024-03-02T11:52:34;21.20;99.90
59961;DHT22;55902;-37.980;-63.602;2024-03-02T11:55:02;21.80;99.90
59961;DHT22;55902;-37.980;-63.602;2024-03-02T11:57:30;22.40;99.90
59961;DHT22;55902;-37.980;-63.602;2024-03-02T11:59:57;22.90;99.90
59961;DHT22;55902;-37.980;-63.602;2024-03-02T12:02:25;23.50;99.90
59961;DHT22;55902;-37.980;-63.602;2024-03-02T12:04:52;24.00;99.90
59961;DHT22;55902;-37.980;-63.602;2024-03-02T12:07:20;24.40;99.90
59961;DHT22;55902;-37.980;-63.602;2024-03-02T12:09:48;24.80;98.20
59961;DHT22;55902;-37.980;-63.602;2024-03-02T12:12:16;25.20;96.80
59961;DHT22;55902;-37.980;-63.602;2024-03-02T12:14:51;25.40;95.60
59961;DHT22;55902;-37.980;-63.602;2024-03-02T12:17:20;25.70;95.50
59961;DHT22;55902;-37.980;-63.602;2024-03-02T12:19:47;26.00;94.10
59961;DHT22;55902;-37.980;-63.602;2024-03-02T12:22:15;26.10;92.40
59961;DHT22;55902;-37.980;-63.602;2024-03-02T12:24:44;26.20;91.50
59961;DHT22;55902;-37.980;-63.602;2024-03-02T12:27:13;26.40;91.00
59961;DHT22;55902;-37.980;-63.602;2024-03-02T12:29:41;26.60;90.50
59961;DHT22;55902;-37.980;-63.602;2024-03-02T12:32:08;26.90;91.00
59961;DHT22;55902;-37.980;-63.602;2024-03-02T12:34:35;27.20;90.30
59961;DHT22;55902;-37.980;-63.602;2024-03-02T12:37:04;27.50;90.00
59961;DHT22;55902;-37.980;-63.602;2024-03-02T12:39:31;27.70;83.40
59961;DHT22;55902;-37.980;-63.602;2024-03-02T12:41:59;27.80;80.30
59961;DHT22;55902;-37.980;-63.602;2024-03-02T12:44:26;27.90;76.60
59961;DHT22;55902;-37.980;-63.602;2024-03-02T12:46:53;28.00;77.50
59961;DHT22;55902;-37.980;-63.602;2024-03-02T12:49:22;28.10;72.40
59961;DHT22;55902;-37.980;-63.602;2024-03-02T12:51:49;28.10;72.40
59961;DHT22;55902;-37.980;-63.602;2024-03-02T12:54:23;28.20;74.40
59961;DHT22;55902;-37.980;-63.602;2024-03-02T12:56:51;28.30;70.40
59961;DHT22;55902;-37.980;-63.602;2024-03-02T12:59:23;28.40;68.10
59961;DHT22;55902;-37.980;-63.602;2024-03-02T13:01:53;28.50;67.50
59961;DHT22;55902;-37.980;-63.602;2024-03-02T13:04:24;28.60;66.80
59961;DHT22;55902;-37.980;-63.602;2024-03-02T13:06:52;28.80;67.30
59961;DHT22;55902;-37.980;-63.602;2024-03-02T13:09:20;29.10;69.50
59961;DHT22;55902;-37.980;-63.602;2024-03-02T13:11:47;29.50;67.10
59961;DHT22;55902;-37.980;-63.602;2024-03-02T13:14:14;29.80;66.10
59961;DHT22;55902;-37.980;-63.602;2024-03-02T13:16:42;30.10;66.00
59961;DHT22;55902;-37.980;-63.602;2024-03-02T13:19:10;30.40;63.10
59961;DHT22;55902;-37.980;-63.602;2024-03-02T13:21:41;30.60;64.70
59961;DHT22;55902;-37.980;-63.602;2024-03-02T13:24:08;31.00;62.60
59961;DHT22;55902;-37.980;-63.602;2024-03-02T13:26:35;31.40;64.40
59961;DHT22;55902;-37.980;-63.602;2024-03-02T13:29:02;31.60;61.50
59961;DHT22;55902;-37.980;-63.602;2024-03-02T13:31:29;31.90;61.60
59961;DHT22;55902;-37.980;-63.602;2024-03-02T13:33:56;32.00;58.90
59961;DHT22;55902;-37.980;-63.602;2024-03-02T13:36:23;31.90;55.70
59961;DHT22;55902;-37.980;-63.602;2024-03-02T13:38:50;31.70;55.70
59961;DHT22;55902;-37.980;-63.602;2024-03-02T13:41:17;31.70;55.40
59961;DHT22;55902;-37.980;-63.602;2024-03-02T13:43:44;31.60;55.50
59961;DHT22;55902;-37.980;-63.602;2024-03-02T13:46:12;31.70;53.20
59961;DHT22;55902;-37.980;-63.602;2024-03-02T13:48:38;31.80;54.70
59961;DHT22;55902;-37.980;-63.602;2024-03-02T13:51:05;31.90;49.90
59961;DHT22;55902;-37.980;-63.602;2024-03-02T13:53:32;31.80;48.80
59961;DHT22;55902;-37.980;-63.602;2024-03-02T13:56:02;31.70;50.90
59961;DHT22;55902;-37.980;-63.602;2024-03-02T13:58:29;31.70;49.60
59961;DHT22;55902;-37.980;-63.602;2024-03-02T14:00:56;31.80;49.80
59961;DHT22;55902;-37.980;-63.602;2024-03-02T14:03:23;31.70;48.70
59961;DHT22;55902;-37.980;-63.602;2024-03-02T14:05:50;31.70;51.40
59961;DHT22;55902;-37.980;-63.602;2024-03-02T14:08:21;31.80;49.00
59961;DHT22;55902;-37.980;-63.602;2024-03-02T14:10:48;31.90;51.20
59961;DHT22;55902;-37.980;-63.602;2024-03-02T14:13:15;32.00;48.20
59961;DHT22;55902;-37.980;-63.602;2024-03-02T14:15:42;31.80;47.30
59961;DHT22;55902;-37.980;-63.602;2024-03-02T14:18:09;31.70;49.60
59961;DHT22;55902;-37.980;-63.602;2024-03-02T14:20:37;31.90;48.80
59961;DHT22;55902;-37.980;-63.602;2024-03-02T14:23:04;32.10;48.20
59961;DHT22;55902;-37.980;-63.602;2024-03-02T14:25:31;32.30;50.10
59961;DHT22;55902;-37.980;-63.602;2024-03-02T14:28:00;32.50;47.90
59961;DHT22;55902;-37.980;-63.602;2024-03-02T14:30:27;32.60;49.00
59961;DHT22;55902;-37.980;-63.602;2024-03-02T14:32:54;32.80;49.70
59961;DHT22;55902;-37.980;-63.602;2024-03-02T14:35:21;33.00;47.00
59961;DHT22;55902;-37.980;-63.602;2024-03-02T14:37:49;33.30;48.80
59961;DHT22;55902;-37.980;-63.602;2024-03-02T14:40:16;33.40;46.90
59961;DHT22;55902;-37.980;-63.602;2024-03-02T14:42:43;33.50;47.00
59961;DHT22;55902;-37.980;-63.602;2024-03-02T14:45:14;33.60;48.00
59961;DHT22;55902;-37.980;-63.602;2024-03-02T14:47:41;33.80;47.60
59961;DHT22;55902;-37.980;-63.602;2024-03-02T14:50:08;34.00;49.60
59961;DHT22;55902;-37.980;-63.602;2024-03-02T14:52:36;33.90;42.50
59961;DHT22;55902;-37.980;-63.602;2024-03-02T14:55:03;33.80;45.80
59961;DHT22;55902;-37.980;-63.602;2024-03-02T14:57:30;33.90;45.30
59961;DHT22;55902;-37.980;-63.602;2024-03-02T14:59:57;33.90;46.20
59961;DHT22;55902;-37.980;-63.602;2024-03-02T15:02:24;34.10;47.20
59961;DHT22;55902;-37.980;-63.602;2024-03-02T15:04:53;34.20;43.70
59961;DHT22;55902;-37.980;-63.602;2024-03-02T15:07:20;34.20;46.30
59961;DHT22;55902;-37.980;-63.602;2024-03-02T15:09:47;34.20;45.50
59961;DHT22;55902;-37.980;-63.602;2024-03-02T15:12:14;34.30;46.50
59961;DHT22;55902;-37.980;-63.602;2024-03-02T15:14:41;34.40;44.40
59961;DHT22;55902;-37.980;-63.602;2024-03-02T15:17:14;34.50;45.60
59961;DHT22;55902;-37.980;-63.602;2024-03-02T15:19:45;34.70;41.50
59961;DHT22;55902;-37.980;-63.602;2024-03-02T15:22:12;34.70;45.00
59961;DHT22;55902;-37.980;-63.602;2024-03-02T15:24:39;35.00;46.00
59961;DHT22;55902;-37.980;-63.602;2024-03-02T15:27:06;35.10;44.20
59961;DHT22;55902;-37.980;-63.602;2024-03-02T15:29:35;35.20;40.50
59961;DHT22;55902;-37.980;-63.602;2024-03-02T15:32:03;35.30;43.20
59961;DHT22;55902;-37.980;-63.602;2024-03-02T15:34:33;35.10;40.80
59961;DHT22;55902;-37.980;-63.602;2024-03-02T15:37:00;35.10;42.90
59961;DHT22;55902;-37.980;-63.602;2024-03-02T15:39:27;34.90;42.80